sensor_id;sensor_type;location;lat;lon;timestamp;pressure;altitude;pressure_sealevel;temperature;humidity
79639;BME280;69114;49.108;8.280;2024-03-17T00:01:18;101128.88;;;5.66;100.00
79639;BME280;69114;49.108;8.280;2024-03-17T00:03:43;101133.03;;;5.69;100.00
79639;BME280;69114;49.108;8.280;2024-03-17T00:06:09;101132.47;;;5.67;100.00
79639;BME280;69114;49.108;8.280;2024-03-17T00:08:35;101125.66;;;5.52;100.00
79639;BME280;69114;49.108;8.280;2024-03-17T00:11:00;101130.09;;;5.53;100.00
79639;BME280;69114;49.108;8.280;2024-03-17T00:13:25;101132.63;;;5.60;100.00
79639;BME280;69114;49.108;8.280;2024-03-17T00:15:51;101123.84;;;5.63;100.00
79639;BME280;69114;49.108;8.280;2024-03-17T00:18:17;101114.41;;;5.59;100.00
79639;BME280;69114;49.108;8.280;2024-03-17T00:20:42;101116.22;;;5.48;100.00
79639;BME280;69114;49.108;8.280;2024-03-17T00:23:08;101106.16;;;5.37;100.00
79639;BME280;69114;49.108;8.280;2024-03-17T00:25:36;101110.75;;;5.31;100.00
79639;BME280;69114;49.108;8.280;2024-03-17T00:28:02;101104.88;;;5.23;100.00
79639;BME280;69114;49.108;8.280;2024-03-17T00:30:28;101094.41;;;5.25;100.00
79639;BME280;69114;49.108;8.280;2024-03-17T00:32:54;101098.06;;;5.30;100.00
79639;BME280;69114;49.108;8.280;2024-03-17T00:35:19;101093.34;;;5.31;100.00
79639;BME280;69114;49.108;8.280;2024-03-17T00:37:48;101092.84;;;5.34;100.00
79639;BME280;69114;49.108;8.280;2024-03-17T00:40:14;101085.63;;;5.28;100.00
79639;BME280;69114;49.108;8.280;2024-03-17T00:42:39;101091.91;;;5.23;100.00
79639;BME280;69114;49.108;8.280;2024-03-17T00:45:06;101083.81;;;5.17;100.00
79639;BME280;69114;49.108;8.280;2024-03-17T00:47:32;101087.59;;;5.10;100.00
79639;BME280;69114;49.108;8.280;2024-03-17T00:49:57;101079.00;;;5.07;100.00
79639;BME280;69114;49.108;8.280;2024-03-17T00:52:23;101085.88;;;5.04;100.00
79639;BME280;69114;49.108;8.280;2024-03-17T00:54:48;101083.63;;;5.01;100.00
79639;BME280;69114;49.108;8.280;2024-03-17T00:57:14;101078.59;;;4.98;100.00
79639;BME280;69114;49.108;8.280;2024-03-17T00:59:40;101087.66;;;4.94;100.00
79639;BME280;69114;49.108;8.280;2024-03-17T01:02:07;101082.66;;;4.91;100.00
79639;BME280;69114;49.108;8.280;2024-03-17T01:04:32;101084.00;;;4.88;100.00
79639;BME280;69114;49.108;8.280;2024-03-17T01:06:59;101072.97;;;4.88;100.00
79639;BME280;69114;49.108;8.280;2024-03-17T01:09:24;101071.78;;;4.84;100.00
79639;BME280;69114;49.108;8.280;2024-03-17T01:11:50;101071.78;;;4.84;100.00
79639;BME280;69114;49.108;8.280;2024-03-17T01:14:15;101074.06;;;4.87;100.00
79639;BME280;69114;49.108;8.280;2024-03-17T01:16:41;101069.13;;;4.89;100.00
79639;BME280;69114;49.108;8.280;2024-03-17T01:19:06;101067.97;;;4.85;100.00
79639;BME280;69114;49.108;8.280;2024-03-17T01:21:31;101074.19;;;4.75;100.00
79639;BME280;69114;49.108;8.280;2024-03-17T01:23:57;101064.16;;;4.69;100.00
79639;BME280;69114;49.108;8.280;2024-03-17T01:26:23;101051.13;;;4.65;100.00
79639;BME280;69114;49.108;8.280;2024-03-17T01:28:49;101051.13;;;4.65;100.00
79639;BME280;69114;49.108;8.280;2024-03-17T01:31:14;101056.63;;;4.65;100.00
79639;BME280;69114;49.108;8.280;2024-03-17T01:33:40;101053.31;;;4.62;100.00
79639;BME280;69114;49.108;8.280;2024-03-17T01:36:05;101051.31;;;4.58;100.00
79639;BME280;69114;49.108;8.280;2024-03-17T01:38:31;101052.66;;;4.55;100.00
79639;BME280;69114;49.108;8.280;2024-03-17T01:40:58;101039.94;;;4.54;100.00
79639;BME280;69114;49.108;8.280;2024-03-17T01:43:23;101039.44;;;4.57;100.00
79639;BME280;69114;49.108;8.280;2024-03-17T01:45:49;101041.13;;;4.58;100.00
79639;BME280;69114;49.108;8.280;2024-03-17T01:48:15;101038.41;;;4.63;100.00
79639;BME280;69114;49.108;8.280;2024-03-17T01:50:42;101038.41;;;4.63;100.00
79639;BME280;69114;49.108;8.280;2024-03-17T01:53:09;101035.03;;;4.56;100.00
79639;BME280;69114;49.108;8.280;2024-03-17T01:55:37;101034.09;;;4.51;100.00
79639;BME280;69114;49.108;8.280;2024-03-17T01:58:05;101031.75;;;4.59;100.00
79639;BME280;69114;49.108;8.280;2024-03-17T02:00:35;101041.44;;;4.62;100.00
79639;BME280;69114;49.108;8.280;2024-03-17T02:03:03;101030.06;;;4.58;100.00
79639;BME280;69114;49.108;8.280;2024-03-17T02:05:29;101028.41;;;4.57;100.00
79639;BME280;69114;49.108;8.280;2024-03-17T02:07:54;101023.16;;;4.56;100.00
79639;BME280;69114;49.108;8.280;2024-03-17T02:10:19;101024.50;;;4.53;100.00
79639;BME280;69114;49.108;8.280;2024-03-17T02:12:45;101024.28;;;4.38;100.00
79639;BME280;69114;49.108;8.280;2024-03-17T02:15:10;101020.94;;;4.36;100.00
79639;BME280;69114;49.108;8.280;2024-03-17T02:17:35;101024.78;;;4.35;100.00
79639;BME280;69114;49.108;8.280;2024-03-17T02:20:01;101012.09;;;4.34;100.00
79639;BME280;69114;49.108;8.280;2024-03-17T02:22:27;101009.34;;;4.34;100.00
79639;BME280;69114;49.108;8.280;2024-03-17T02:24:55;101016.69;;;4.28;100.00
79639;BME280;69114;49.108;8.280;2024-03-17T02:27:21;101013.41;;;4.31;100.00
79639;BME280;69114;49.108;8.280;2024-03-17T02:29:46;101011.06;;;4.40;100.00
79639;BME280;69114;49.108;8.280;2024-03-17T02:32:12;101006.63;;;4.39;100.00
79639;BME280;69114;49.108;8.280;2024-03-17T02:34:37;101007.75;;;4.38;100.00
79639;BME280;69114;49.108;8.280;2024-03-17T02:37:06;101007.66;;;4.33;100.00
79639;BME280;69114;49.108;8.280;2024-03-17T02:39:33;101005.06;;;4.26;100.00
79639;BME280;69114;49.108;8.280;2024-03-17T02:44:27;100998.25;;;4.12;100.00
79639;BME280;69114;49.108;8.280;2024-03-17T02:46:52;101001.75;;;4.07;100.00
79639;BME280;69114;49.108;8.280;2024-03-17T02:49:17;100993.25;;;4.09;100.00
79639;BME280;69114;49.108;8.280;2024-03-17T02:51:43;100994.91;;;4.10;100.00
79639;BME280;69114;49.108;8.280;2024-03-17T02:54:09;100991.19;;;3.99;100.00
79639;BME280;69114;49.108;8.280;2024-03-17T02:56:34;100983.16;;;3.98;100.00
79639;BME280;69114;49.108;8.280;2024-03-17T02:58:59;100982.31;;;3.97;100.00
79639;BME280;69114;49.108;8.280;2024-03-17T03:01:25;100991.88;;;3.90;100.00
79639;BME280;69114;49.108;8.280;2024-03-17T03:03:50;100991.00;;;3.89;100.00
79639;BME280;69114;49.108;8.280;2024-03-17T03:06:16;100989.69;;;3.92;100.00
79639;BME280;69114;49.108;8.280;2024-03-17T03:08:44;100988.25;;;3.89;100.00
79639;BME280;69114;49.108;8.280;2024-03-17T03:11:14;101000.13;;;3.90;100.00
79639;BME280;69114;49.108;8.280;2024-03-17T03:13:40;100993.75;;;3.89;100.00
79639;BME280;69114;49.108;8.280;2024-03-17T03:16:07;100994.63;;;3.90;100.00
79639;BME280;69114;49.108;8.280;2024-03-17T03:18:34;100990.50;;;3.92;100.00
79639;BME280;69114;49.108;8.280;2024-03-17T03:20:59;100997.13;;;3.91;100.00
79639;BME280;69114;49.108;8.280;2024-03-17T03:23:24;100985.75;;;3.88;100.00
79639;BME280;69114;49.108;8.280;2024-03-17T03:25:55;100986.25;;;3.84;100.00
79639;BME280;69114;49.108;8.280;2024-03-17T03:28:21;100988.69;;;3.81;100.00
79639;BME280;69114;49.108;8.280;2024-03-17T03:30:46;100990.28;;;3.77;100.00
79639;BME280;69114;49.108;8.280;2024-03-17T03:33:11;100991.09;;;3.77;100.00
79639;BME280;69114;49.108;8.280;2024-03-17T03:35:37;100993.28;;;3.75;100.00
79639;BME280;69114;49.108;8.280;2024-03-17T03:38:02;100993.28;;;3.75;100.00
79639;BME280;69114;49.108;8.280;2024-03-17T03:40:28;100984.75;;;3.77;100.00
79639;BME280;69114;49.108;8.280;2024-03-17T03:42:53;100982.59;;;3.79;100.00
79639;BME280;69114;49.108;8.280;2024-03-17T03:45:19;100987.09;;;3.85;100.00
79639;BME280;69114;49.108;8.280;2024-03-17T03:47:45;100984.44;;;3.90;100.00
79639;BME280;69114;49.108;8.280;2024-03-17T03:50:12;100984.66;;;3.89;100.00
79639;BME280;69114;49.108;8.280;2024-03-17T03:52:38;100987.94;;;3.85;100.00
79639;BME280;69114;49.108;8.280;2024-03-17T03:55:06;100990.94;;;3.84;100.00
79639;BME280;69114;49.108;8.280;2024-03-17T03:57:33;100992.19;;;3.76;100.00
79639;BME280;69114;49.108;8.280;2024-03-17T03:59:59;100993.03;;;3.77;100.00
79639;BME280;69114;49.108;8.280;2024-03-17T04:02:25;100990.13;;;3.67;100.00
79639;BME280;69114;49.108;8.280;2024-03-17T04:04:56;100983.69;;;3.61;100.00
79639;BME280;69114;49.108;8.280;2024-03-17T04:07:21;100982.44;;;3.69;100.00
79639;BME280;69114;49.108;8.280;2024-03-17T04:09:47;100983.09;;;3.76;100.00
79639;BME280;69114;49.108;8.280;2024-03-17T04:12:12;100990.63;;;3.80;100.00
79639;BME280;69114;49.108;8.280;2024-03-17T04:14:37;100979.25;;;3.77;100.00
79639;BME280;69114;49.108;8.280;2024-03-17T04:17:03;100984.91;;;3.70;100.00
79639;BME280;69114;49.108;8.280;2024-03-17T04:19:30;100979.59;;;3.64;100.00
79639;BME280;69114;49.108;8.280;2024-03-17T04:21:55;100979.84;;;3.62;100.00
79639;BME280;69114;49.108;8.280;2024-03-17T04:24:20;100981.09;;;3.54;100.00
79639;BME280;69114;49.108;8.280;2024-03-17T04:26:46;100976.25;;;3.62;100.00
79639;BME280;69114;49.108;8.280;2024-03-17T04:29:11;100981.78;;;3.62;100.00
79639;BME280;69114;49.108;8.280;2024-03-17T04:31:37;100979.50;;;3.58;100.00
79639;BME280;69114;49.108;8.280;2024-03-17T04:34:03;100990.53;;;3.58;100.00
79639;BME280;69114;49.108;8.280;2024-03-17T04:36:28;100988.59;;;3.59;100.00
79639;BME280;69114;49.108;8.280;2024-03-17T04:38:53;100986.09;;;3.57;100.00
79639;BME280;69114;49.108;8.280;2024-03-17T04:41:19;100977.50;;;3.54;100.00
79639;BME280;69114;49.108;8.280;2024-03-17T04:43:44;100972.47;;;3.51;100.00
79639;BME280;69114;49.108;8.280;2024-03-17T04:46:10;100977.16;;;3.50;100.00
79639;BME280;69114;49.108;8.280;2024-03-17T04:48:37;100976.31;;;3.50;100.00
79639;BME280;69114;49.108;8.280;2024-03-17T04:51:02;100975.97;;;3.46;100.00
79639;BME280;69114;49.108;8.280;2024-03-17T04:53:28;100978.41;;;3.43;100.00
79639;BME280;69114;49.108;8.280;2024-03-17T04:56:12;100975.06;;;3.41;100.00
79639;BME280;69114;49.108;8.280;2024-03-17T04:58:37;100988.59;;;3.42;100.00
79639;BME280;69114;49.108;8.280;2024-03-17T05:01:09;100994.59;;;3.39;100.00
79639;BME280;69114;49.108;8.280;2024-03-17T05:03:35;100989.56;;;3.36;100.00
79639;BME280;69114;49.108;8.280;2024-03-17T05:06:04;100991.75;;;3.34;100.00
79639;BME280;69114;49.108;8.280;2024-03-17T05:08:31;100991.41;;;3.30;100.00
79639;BME280;69114;49.108;8.280;2024-03-17T05:11:06;100990.09;;;3.33;100.00
79639;BME280;69114;49.108;8.280;2024-03-17T05:13:32;100988.41;;;3.32;100.00
79639;BME280;69114;49.108;8.280;2024-03-17T05:15:58;100996.25;;;3.23;100.00
79639;BME280;69114;49.108;8.280;2024-03-17T05:18:24;100987.91;;;3.18;100.00
79639;BME280;69114;49.108;8.280;2024-03-17T05:21:01;100990.66;;;3.18;100.00
79639;BME280;69114;49.108;8.280;2024-03-17T05:23:29;100978.13;;;3.11;100.00
79639;BME280;69114;49.108;8.280;2024-03-17T05:25:56;100986.19;;;3.00;100.00
79639;BME280;69114;49.108;8.280;2024-03-17T05:28:22;100979.03;;;2.99;100.00
79639;BME280;69114;49.108;8.280;2024-03-17T05:30:48;100979.84;;;3.00;100.00
79639;BME280;69114;49.108;8.280;2024-03-17T05:33:15;100991.69;;;3.00;100.00
79639;BME280;69114;49.108;8.280;2024-03-17T05:35:48;100983.38;;;3.12;100.00
79639;BME280;69114;49.108;8.280;2024-03-17T05:38:14;100983.13;;;3.14;100.00
79639;BME280;69114;49.108;8.280;2024-03-17T05:40:39;100978.69;;;3.13;100.00
79639;BME280;69114;49.108;8.280;2024-03-17T05:43:06;100985.28;;;3.12;100.00
79639;BME280;69114;49.108;8.280;2024-03-17T05:45:32;100989.47;;;3.14;100.00
79639;BME280;69114;49.108;8.280;2024-03-17T05:47:57;100989.13;;;3.11;100.00
79639;BME280;69114;49.108;8.280;2024-03-17T05:50:23;100991.13;;;3.15;100.00
79639;BME280;69114;49.108;8.280;2024-03-17T05:52:48;100992.22;;;3.14;100.00
79639;BME280;69114;49.108;8.280;2024-03-17T05:55:14;100993.63;;;3.17;100.00
79639;BME280;69114;49.108;8.280;2024-03-17T05:57:39;100996.47;;;3.22;100.00
79639;BME280;69114;49.108;8.280;2024-03-17T06:00:05;101002.06;;;3.27;100.00
79639;BME280;69114;49.108;8.280;2024-03-17T06:02:30;100992.00;;;3.32;100.00
79639;BME280;69114;49.108;8.280;2024-03-17T06:04:56;100993.91;;;3.32;100.00
79639;BME280;69114;49.108;8.280;2024-03-17T06:07:22;100978.56;;;3.36;100.00
79639;BME280;69114;49.108;8.280;2024-03-17T06:09:48;100982.09;;;3.48;100.00
79639;BME280;69114;49.108;8.280;2024-03-17T06:12:14;100995.25;;;3.46;100.00
79639;BME280;69114;49.108;8.280;2024-03-17T06:14:40;100991.28;;;3.37;100.00
79639;BME280;69114;49.108;8.280;2024-03-17T06:17:05;100985.34;;;3.45;100.00
79639;BME280;69114;49.108;8.280;2024-03-17T06:19:33;100991.69;;;3.63;100.00
79639;BME280;69114;49.108;8.280;2024-03-17T06:21:58;100980.56;;;3.74;100.00
79639;BME280;69114;49.108;8.280;2024-03-17T06:24:23;100980.44;;;3.81;100.00
79639;BME280;69114;49.108;8.280;2024-03-17T06:26:50;100984.94;;;3.87;100.00
79639;BME280;69114;49.108;8.280;2024-03-17T06:29:15;100983.69;;;3.95;100.00
79639;BME280;69114;49.108;8.280;2024-03-17T06:31:41;100985.22;;;4.07;100.00
79639;BME280;69114;49.108;8.280;2024-03-17T06:34:06;100987.06;;;4.19;100.00
79639;BME280;69114;49.108;8.280;2024-03-17T06:36:32;100987.69;;;4.26;100.00
79639;BME280;69114;49.108;8.280;2024-03-17T06:38:57;100985.00;;;4.31;100.00
79639;BME280;69114;49.108;8.280;2024-03-17T06:41:22;100990.66;;;4.41;100.00
79639;BME280;69114;49.108;8.280;2024-03-17T06:43:48;100990.56;;;4.53;100.00
79639;BME280;69114;49.108;8.280;2024-03-17T06:46:14;100984.84;;;4.59;100.00
79639;BME280;69114;49.108;8.280;2024-03-17T06:48:39;100984.13;;;4.69;100.00
79639;BME280;69114;49.108;8.280;2024-03-17T06:51:05;100981.47;;;4.79;100.00
79639;BME280;69114;49.108;8.280;2024-03-17T06:53:31;100980.47;;;4.85;100.00
79639;BME280;69114;49.108;8.280;2024-03-17T06:55:57;100991.94;;;4.99;100.00
79639;BME280;69114;49.108;8.280;2024-03-17T06:58:23;100983.50;;;5.11;100.00
79639;BME280;69114;49.108;8.280;2024-03-17T07:01:00;100983.00;;;5.14;100.00
79639;BME280;69114;49.108;8.280;2024-03-17T07:03:27;100988.88;;;5.23;100.00
79639;BME280;69114;49.108;8.280;2024-03-17T07:05:58;100983.13;;;5.29;100.00
79639;BME280;69114;49.108;8.280;2024-03-17T07:08:25;100981.06;;;5.42;100.00
79639;BME280;69114;49.108;8.280;2024-03-17T07:10:57;100978.47;;;5.62;100.00
79639;BME280;69114;49.108;8.280;2024-03-17T07:13:22;100976.84;;;5.66;100.00
79639;BME280;69114;49.108;8.280;2024-03-17T07:15:48;100978.03;;;5.75;100.00
79639;BME280;69114;49.108;8.280;2024-03-17T07:18:13;100977.75;;;5.77;100.00
79639;BME280;69114;49.108;8.280;2024-03-17T07:20:39;100981.69;;;5.86;100.00
79639;BME280;69114;49.108;8.280;2024-03-17T07:23:04;100985.16;;;5.98;100.00
79639;BME280;69114;49.108;8.280;2024-03-17T07:25:30;100988.75;;;5.99;100.00
79639;BME280;69114;49.108;8.280;2024-03-17T07:27:55;100986.34;;;6.12;100.00
79639;BME280;69114;49.108;8.280;2024-03-17T07:30:20;100982.19;;;6.15;100.00
79639;BME280;69114;49.108;8.280;2024-03-17T07:32:46;100981.38;;;6.14;100.00
79639;BME280;69114;49.108;8.280;2024-03-17T07:35:12;100984.78;;;6.27;100.00
79639;BME280;69114;49.108;8.280;2024-03-17T07:37:37;100979.88;;;6.44;100.00
79639;BME280;69114;49.108;8.280;2024-03-17T07:40:05;100970.25;;;6.52;100.00
79639;BME280;69114;49.108;8.280;2024-03-17T07:42:32;100967.53;;;6.67;100.00
79639;BME280;69114;49.108;8.280;2024-03-17T07:44:57;100970.31;;;6.72;100.00
79639;BME280;69114;49.108;8.280;2024-03-17T07:47:23;100978.06;;;6.70;100.00
79639;BME280;69114;49.108;8.280;2024-03-17T07:49:48;100974.22;;;6.81;100.00
79639;BME280;69114;49.108;8.280;2024-03-17T07:52:14;100972.81;;;6.74;100.00
79639;BME280;69114;49.108;8.280;2024-03-17T07:54:39;100973.59;;;6.64;100.00
79639;BME280;69114;49.108;8.280;2024-03-17T07:57:04;100973.84;;;6.57;100.00
79639;BME280;69114;49.108;8.280;2024-03-17T07:59:29;100976.34;;;6.59;100.00
79639;BME280;69114;49.108;8.280;2024-03-17T08:01:56;100985.22;;;6.56;100.00
79639;BME280;69114;49.108;8.280;2024-03-17T08:04:22;100981.03;;;6.53;100.00
79639;BME280;69114;49.108;8.280;2024-03-17T08:06:47;100975.88;;;6.77;100.00
79639;BME280;69114;49.108;8.280;2024-03-17T08:09:13;100972.63;;;7.01;100.00
79639;BME280;69114;49.108;8.280;2024-03-17T08:11:38;100972.41;;;7.17;100.00
79639;BME280;69114;49.108;8.280;2024-03-17T08:14:08;100975.19;;;7.23;100.00
79639;BME280;69114;49.108;8.280;2024-03-17T08:16:34;100977.16;;;7.48;100.00
79639;BME280;69114;49.108;8.280;2024-03-17T08:18:59;100972.44;;;7.48;100.00
79639;BME280;69114;49.108;8.280;2024-03-17T08:21:24;100973.84;;;7.46;100.00
79639;BME280;69114;49.108;8.280;2024-03-17T08:23:50;100972.19;;;7.60;100.00
79639;BME280;69114;49.108;8.280;2024-03-17T08:26:15;100974.38;;;7.78;100.00
79639;BME280;69114;49.108;8.280;2024-03-17T08:28:41;100966.03;;;7.78;100.00
79639;BME280;69114;49.108;8.280;2024-03-17T08:31:06;100967.47;;;7.76;100.00
79639;BME280;69114;49.108;8.280;2024-03-17T08:33:31;100958.84;;;7.77;100.00
79639;BME280;69114;49.108;8.280;2024-03-17T08:36:01;100963.53;;;7.97;100.00
79639;BME280;69114;49.108;8.280;2024-03-17T08:38:28;100964.63;;;8.11;100.00
79639;BME280;69114;49.108;8.280;2024-03-17T08:40:58;100956.88;;;8.13;100.00
79639;BME280;69114;49.108;8.280;2024-03-17T08:43:23;100953.50;;;8.16;100.00
79639;BME280;69114;49.108;8.280;2024-03-17T08:46:08;100950.75;;;8.16;100.00
79639;BME280;69114;49.108;8.280;2024-03-17T08:48:35;100952.94;;;8.25;100.00
79639;BME280;69114;49.108;8.280;2024-03-17T08:51:02;100947.34;;;8.35;100.00
79639;BME280;69114;49.108;8.280;2024-03-17T08:53:28;100938.81;;;8.36;100.00
79639;BME280;69114;49.108;8.280;2024-03-17T08:55:55;100949.88;;;8.46;100.00
79639;BME280;69114;49.108;8.280;2024-03-17T08:58:21;100952.25;;;8.68;100.00
79639;BME280;69114;49.108;8.280;2024-03-17T09:00:46;100952.41;;;8.92;100.00
79639;BME280;69114;49.108;8.280;2024-03-17T09:03:12;100958.28;;;8.91;100.00
79639;BME280;69114;49.108;8.280;2024-03-17T09:05:38;100952.69;;;8.96;100.00
79639;BME280;69114;49.108;8.280;2024-03-17T09:08:05;100943.69;;;9.14;100.00
79639;BME280;69114;49.108;8.280;2024-03-17T09:10:30;100942.47;;;9.31;100.00
79639;BME280;69114;49.108;8.280;2024-03-17T09:12:56;100942.06;;;9.47;100.00
79639;BME280;69114;49.108;8.280;2024-03-17T09:15:22;100944.75;;;9.58;100.00
79639;BME280;69114;49.108;8.280;2024-03-17T09:17:47;100935.28;;;9.64;100.00
79639;BME280;69114;49.108;8.280;2024-03-17T09:20:12;100946.13;;;9.60;100.00
79639;BME280;69114;49.108;8.280;2024-03-17T09:22:42;100938.19;;;9.78;100.00
79639;BME280;69114;49.108;8.280;2024-03-17T09:25:08;100941.13;;;9.91;100.00
79639;BME280;69114;49.108;8.280;2024-03-17T09:27:34;100946.88;;;10.00;100.00
79639;BME280;69114;49.108;8.280;2024-03-17T09:30:05;100940.38;;;10.10;100.00
79639;BME280;69114;49.108;8.280;2024-03-17T09:32:34;100948.41;;;10.16;100.00
79639;BME280;69114;49.108;8.280;2024-03-17T09:34:59;100947.38;;;10.07;100.00
79639;BME280;69114;49.108;8.280;2024-03-17T09:37:24;100948.78;;;10.34;100.00
79639;BME280;69114;49.108;8.280;2024-03-17T09:39:50;100945.94;;;10.63;100.00
79639;BME280;69114;49.108;8.280;2024-03-17T09:42:19;100946.94;;;10.48;100.00
79639;BME280;69114;49.108;8.280;2024-03-17T09:44:48;100947.94;;;10.57;100.00
79639;BME280;69114;49.108;8.280;2024-03-17T09:47:18;100952.56;;;10.43;100.00
79639;BME280;69114;49.108;8.280;2024-03-17T09:49:46;100953.41;;;10.43;100.00
79639;BME280;69114;49.108;8.280;2024-03-17T09:52:25;100947.63;;;10.40;100.00
79639;BME280;69114;49.108;8.280;2024-03-17T09:55:09;100933.91;;;10.67;100.00
79639;BME280;69114;49.108;8.280;2024-03-17T09:57:39;100927.78;;;11.08;100.00
79639;BME280;69114;49.108;8.280;2024-03-17T10:00:14;100938.94;;;11.27;100.00
79639;BME280;69114;49.108;8.280;2024-03-17T10:02:47;100939.72;;;11.46;100.00
79639;BME280;69114;49.108;8.280;2024-03-17T10:05:23;100935.22;;;11.32;100.00
79639;BME280;69114;49.108;8.280;2024-03-17T10:07:50;100949.22;;;11.64;100.00
79639;BME280;69114;49.108;8.280;2024-03-17T10:10:16;100950.34;;;11.96;100.00
79639;BME280;69114;49.108;8.280;2024-03-17T10:12:43;100945.50;;;11.88;100.00
79639;BME280;69114;49.108;8.280;2024-03-17T10:15:11;100948.72;;;11.95;100.00
79639;BME280;69114;49.108;8.280;2024-03-17T10:17:36;100958.47;;;12.11;100.00
79639;BME280;69114;49.108;8.280;2024-03-17T10:20:18;100959.31;;;12.12;100.00
79639;BME280;69114;49.108;8.280;2024-03-17T10:23:04;100964.28;;;12.28;100.00
79639;BME280;69114;49.108;8.280;2024-03-17T10:25:38;100967.00;;;12.61;100.00
79639;BME280;69114;49.108;8.280;2024-03-17T10:28:10;100962.97;;;12.40;100.00
79639;BME280;69114;49.108;8.280;2024-03-17T10:30:36;100957.13;;;12.09;100.00
79639;BME280;69114;49.108;8.280;2024-03-17T10:33:02;100955.59;;;12.57;100.00
79639;BME280;69114;49.108;8.280;2024-03-17T10:35:34;100955.53;;;12.49;100.00
79639;BME280;69114;49.108;8.280;2024-03-17T10:38:01;100940.09;;;12.65;100.00
79639;BME280;69114;49.108;8.280;2024-03-17T10:40:29;100932.28;;;12.90;100.00
79639;BME280;69114;49.108;8.280;2024-03-17T10:42:55;100924.50;;;13.00;100.00
79639;BME280;69114;49.108;8.280;2024-03-17T10:45:21;100927.44;;;12.81;100.00
79639;BME280;69114;49.108;8.280;2024-03-17T10:50:23;100919.63;;;13.06;100.00
79639;BME280;69114;49.108;8.280;2024-03-17T10:52:52;100925.59;;;13.63;100.00
79639;BME280;69114;49.108;8.280;2024-03-17T10:55:24;100914.41;;;13.94;99.17
79639;BME280;69114;49.108;8.280;2024-03-17T10:57:54;100904.56;;;13.74;90.96
79639;BME280;69114;49.108;8.280;2024-03-17T11:00:23;100903.53;;;13.93;95.92
79639;BME280;69114;49.108;8.280;2024-03-17T11:02:51;100907.78;;;14.21;92.79
79639;BME280;69114;49.108;8.280;2024-03-17T11:05:22;100901.03;;;14.22;90.33
79639;BME280;69114;49.108;8.280;2024-03-17T11:07:50;100898.31;;;14.40;92.65
79639;BME280;69114;49.108;8.280;2024-03-17T11:10:28;100899.22;;;14.57;92.13
79639;BME280;69114;49.108;8.280;2024-03-17T11:12:54;100894.59;;;14.62;94.90
79639;BME280;69114;49.108;8.280;2024-03-17T11:20:32;100888.56;;;14.77;94.57
79639;BME280;69114;49.108;8.280;2024-03-17T11:22:59;100884.31;;;15.05;87.73
79639;BME280;69114;49.108;8.280;2024-03-17T11:27:55;100878.19;;;15.21;91.33
79639;BME280;69114;49.108;8.280;2024-03-17T11:38:56;100873.84;;;14.71;87.25
79639;BME280;69114;49.108;8.280;2024-03-17T11:47:02;100880.81;;;14.43;90.15
79639;BME280;69114;49.108;8.280;2024-03-17T11:49:32;100868.88;;;14.59;86.99
79639;BME280;69114;49.108;8.280;2024-03-17T11:54:36;100872.66;;;14.15;90.54
79639;BME280;69114;49.108;8.280;2024-03-17T11:57:02;100876.66;;;14.31;87.92
79639;BME280;69114;49.108;8.280;2024-03-17T11:59:29;100871.66;;;14.51;88.80
79639;BME280;69114;49.108;8.280;2024-03-17T12:04:29;100866.44;;;14.27;92.75
79639;BME280;69114;49.108;8.280;2024-03-17T12:06:56;100869.72;;;14.29;89.50
79639;BME280;69114;49.108;8.280;2024-03-17T12:09:23;100863.59;;;14.58;87.47
79639;BME280;69114;49.108;8.280;2024-03-17T12:11:51;100855.69;;;14.60;85.94
79639;BME280;69114;49.108;8.280;2024-03-17T12:14:19;100851.78;;;14.87;82.15
79639;BME280;69114;49.108;8.280;2024-03-17T12:16:56;100841.84;;;15.42;85.45
79639;BME280;69114;49.108;8.280;2024-03-17T12:19:23;100831.59;;;15.46;73.88
79639;BME280;69114;49.108;8.280;2024-03-17T12:21:52;100826.97;;;15.58;74.69
79639;BME280;69114;49.108;8.280;2024-03-17T12:24:24;100836.03;;;15.81;77.11
79639;BME280;69114;49.108;8.280;2024-03-17T12:26:50;100838.69;;;16.46;74.23
79639;BME280;69114;49.108;8.280;2024-03-17T12:29:39;100831.97;;;16.38;74.76
79639;BME280;69114;49.108;8.280;2024-03-17T12:34:40;100830.69;;;16.56;76.15
79639;BME280;69114;49.108;8.280;2024-03-17T12:37:06;100828.00;;;16.01;76.82
79639;BME280;69114;49.108;8.280;2024-03-17T12:39:33;100834.09;;;16.03;77.25
79639;BME280;69114;49.108;8.280;2024-03-17T12:44:39;100817.16;;;15.91;75.31
79639;BME280;69114;49.108;8.280;2024-03-17T12:49:58;100811.00;;;15.07;79.80
79639;BME280;69114;49.108;8.280;2024-03-17T12:57:43;100805.09;;;14.82;78.51
79639;BME280;69114;49.108;8.280;2024-03-17T13:00:27;100804.44;;;15.76;76.28
79639;BME280;69114;49.108;8.280;2024-03-17T13:02:58;100796.31;;;16.51;73.01
79639;BME280;69114;49.108;8.280;2024-03-17T13:05:24;100788.38;;;17.15;72.85
79639;BME280;69114;49.108;8.280;2024-03-17T13:07:50;100788.69;;;17.35;69.62
79639;BME280;69114;49.108;8.280;2024-03-17T13:10:16;100791.41;;;16.89;68.17
79639;BME280;69114;49.108;8.280;2024-03-17T13:12:43;100780.81;;;16.65;71.74
79639;BME280;69114;49.108;8.280;2024-03-17T13:15:11;100778.22;;;16.60;70.30
79639;BME280;69114;49.108;8.280;2024-03-17T13:17:37;100771.50;;;16.95;69.82
79639;BME280;69114;49.108;8.280;2024-03-17T13:20:03;100777.16;;;16.74;71.40
79639;BME280;69114;49.108;8.280;2024-03-17T13:22:29;100773.50;;;16.94;70.21
79639;BME280;69114;49.108;8.280;2024-03-17T13:24:54;100770.84;;;16.77;70.79
79639;BME280;69114;49.108;8.280;2024-03-17T13:27:20;100775.69;;;15.79;76.16
79639;BME280;69114;49.108;8.280;2024-03-17T13:29:48;100768.63;;;16.11;77.84
79639;BME280;69114;49.108;8.280;2024-03-17T13:32:14;100761.47;;;16.64;75.58